sensor_id;sensor_type;location;lat;lon;timestamp;pressure;altitude;pressure_sealevel;temperature;humidity
65329;BME280;51941;52.210;5.158;2023-09-18T00:00:53;100647.78;;;17.99;100.00
65329;BME280;51941;52.210;5.158;2023-09-18T00:03:22;100637.34;;;17.97;100.00
65329;BME280;51941;52.210;5.158;2023-09-18T00:05:50;100626.91;;;17.96;100.00
65329;BME280;51941;52.210;5.158;2023-09-18T00:08:17;100620.19;;;17.98;100.00
65329;BME280;51941;52.210;5.158;2023-09-18T00:10:47;100610.28;;;17.99;100.00
65329;BME280;51941;52.210;5.158;2023-09-18T00:13:15;100597.69;;;17.99;100.00
65329;BME280;51941;52.210;5.158;2023-09-18T00:15:42;100598.47;;;18.00;100.00
65329;BME280;51941;52.210;5.158;2023-09-18T00:18:11;100595.00;;;17.99;100.00
65329;BME280;51941;52.210;5.158;2023-09-18T00:20:38;100584.59;;;17.98;100.00
65329;BME280;51941;52.210;5.158;2023-09-18T00:23:06;100569.59;;;17.97;100.00
65329;BME280;51941;52.210;5.158;2023-09-18T00:25:34;100560.75;;;17.96;100.00
65329;BME280;51941;52.210;5.158;2023-09-18T00:28:00;100574.06;;;18.01;100.00
65329;BME280;51941;52.210;5.158;2023-09-18T00:30:28;100573.28;;;18.01;100.00
65329;BME280;51941;52.210;5.158;2023-09-18T00:32:55;100564.16;;;18.02;100.00
65329;BME280;51941;52.210;5.158;2023-09-18T00:35:23;100566.56;;;18.03;100.00
65329;BME280;51941;52.210;5.158;2023-09-18T00:37:49;100556.66;;;18.04;100.00
65329;BME280;51941;52.210;5.158;2023-09-18T00:40:16;100554.47;;;18.06;100.00
65329;BME280;51941;52.210;5.158;2023-09-18T00:42:43;100545.66;;;18.05;100.00
65329;BME280;51941;52.210;5.158;2023-09-18T00:45:10;100548.03;;;18.07;100.00
65329;BME280;51941;52.210;5.158;2023-09-18T00:47:37;100553.41;;;18.07;100.00
65329;BME280;51941;52.210;5.158;2023-09-18T00:50:07;100549.66;;;18.08;100.00
65329;BME280;51941;52.210;5.158;2023-09-18T00:52:37;100529.78;;;18.09;100.00
65329;BME280;51941;52.210;5.158;2023-09-18T00:55:06;100516.38;;;18.09;100.00
65329;BME280;51941;52.210;5.158;2023-09-18T00:57:33;100510.28;;;18.08;100.00
65329;BME280;51941;52.210;5.158;2023-09-18T01:00:01;100510.28;;;18.08;100.00
65329;BME280;51941;52.210;5.158;2023-09-18T01:02:29;100497.97;;;18.07;100.00
65329;BME280;51941;52.210;5.158;2023-09-18T01:04:56;100485.94;;;18.05;100.00
65329;BME280;51941;52.210;5.158;2023-09-18T01:07:23;100487.25;;;18.07;100.00
65329;BME280;51941;52.210;5.158;2023-09-18T01:09:51;100488.84;;;18.08;100.00
65329;BME280;51941;52.210;5.158;2023-09-18T01:12:26;100478.13;;;18.08;100.00
65329;BME280;51941;52.210;5.158;2023-09-18T01:15:02;100468.50;;;18.07;100.00
65329;BME280;51941;52.210;5.158;2023-09-18T01:17:35;100456.97;;;18.07;100.00
65329;BME280;51941;52.210;5.158;2023-09-18T01:20:04;100457.47;;;18.09;100.00
65329;BME280;51941;52.210;5.158;2023-09-18T01:22:33;100455.09;;;18.07;100.00
65329;BME280;51941;52.210;5.158;2023-09-18T01:25:00;100447.88;;;18.08;100.00
65329;BME280;51941;52.210;5.158;2023-09-18T01:27:26;100432.38;;;18.05;100.00
65329;BME280;51941;52.210;5.158;2023-09-18T01:29:53;100440.63;;;18.08;100.00
65329;BME280;51941;52.210;5.158;2023-09-18T01:32:24;100432.59;;;18.08;100.00
65329;BME280;51941;52.210;5.158;2023-09-18T01:34:54;100430.19;;;18.07;100.00
65329;BME280;51941;52.210;5.158;2023-09-18T01:37:24;100431.78;;;18.08;100.00
65329;BME280;51941;52.210;5.158;2023-09-18T01:39:53;100427.72;;;18.10;100.00
65329;BME280;51941;52.210;5.158;2023-09-18T01:42:23;100424.25;;;18.10;100.00
65329;BME280;51941;52.210;5.158;2023-09-18T01:44:52;100429.31;;;18.11;100.00
65329;BME280;51941;52.210;5.158;2023-09-18T01:47:20;100436.28;;;18.12;100.00
65329;BME280;51941;52.210;5.158;2023-09-18T01:49:49;100441.34;;;18.14;100.00
65329;BME280;51941;52.210;5.158;2023-09-18T01:52:16;100435.69;;;18.15;100.00
65329;BME280;51941;52.210;5.158;2023-09-18T01:54:42;100427.38;;;18.17;100.00
65329;BME280;51941;52.210;5.158;2023-09-18T01:57:12;100413.97;;;18.17;100.00
65329;BME280;51941;52.210;5.158;2023-09-18T01:59:39;100407.50;;;18.18;100.00
65329;BME280;51941;52.210;5.158;2023-09-18T02:02:07;100410.00;;;18.14;100.00
65329;BME280;51941;52.210;5.158;2023-09-18T02:04:35;100416.16;;;18.15;100.00
65329;BME280;51941;52.210;5.158;2023-09-18T02:07:03;100418.53;;;18.16;100.00
65329;BME280;51941;52.210;5.158;2023-09-18T02:09:29;100417.75;;;18.16;100.00
65329;BME280;51941;52.210;5.158;2023-09-18T02:11:56;100412.38;;;18.16;100.00
65329;BME280;51941;52.210;5.158;2023-09-18T02:14:25;100427.38;;;18.17;100.00
65329;BME280;51941;52.210;5.158;2023-09-18T02:16:51;100426.56;;;18.16;100.00
65329;BME280;51941;52.210;5.158;2023-09-18T02:19:19;100431.41;;;18.14;100.00
65329;BME280;51941;52.210;5.158;2023-09-18T02:21:46;100430.34;;;18.15;100.00
65329;BME280;51941;52.210;5.158;2023-09-18T02:24:12;100421.56;;;18.10;100.00
65329;BME280;51941;52.210;5.158;2023-09-18T02:26:39;100427.94;;;18.14;100.00
65329;BME280;51941;52.210;5.158;2023-09-18T02:29:08;100424.75;;;18.12;100.00
65329;BME280;51941;52.210;5.158;2023-09-18T02:31:38;100422.88;;;18.12;100.00
65329;BME280;51941;52.210;5.158;2023-09-18T02:34:05;100417.53;;;18.12;100.00
65329;BME280;51941;52.210;5.158;2023-09-18T02:36:32;100409.75;;;18.11;100.00
65329;BME280;51941;52.210;5.158;2023-09-18T02:38:59;100401.22;;;18.09;100.00
65329;BME280;51941;52.210;5.158;2023-09-18T02:41:26;100394.50;;;18.11;100.00
65329;BME280;51941;52.210;5.158;2023-09-18T02:43:52;100395.28;;;18.12;100.00
65329;BME280;51941;52.210;5.158;2023-09-18T02:46:20;100375.59;;;18.03;100.00
65329;BME280;51941;52.210;5.158;2023-09-18T02:48:48;100393.41;;;18.12;100.00
65329;BME280;51941;52.210;5.158;2023-09-18T02:51:15;100382.97;;;18.11;100.00
65329;BME280;51941;52.210;5.158;2023-09-18T02:53:42;100381.69;;;18.08;100.00
65329;BME280;51941;52.210;5.158;2023-09-18T02:56:09;100371.47;;;18.10;100.00
65329;BME280;51941;52.210;5.158;2023-09-18T02:58:37;100367.19;;;18.09;100.00
65329;BME280;51941;52.210;5.158;2023-09-18T03:01:03;100367.19;;;18.09;100.00
65329;BME280;51941;52.210;5.158;2023-09-18T03:03:33;100348.44;;;18.09;100.00
65329;BME280;51941;52.210;5.158;2023-09-18T03:06:02;100336.38;;;18.12;100.00
65329;BME280;51941;52.210;5.158;2023-09-18T03:08:29;100316.81;;;18.11;100.00
65329;BME280;51941;52.210;5.158;2023-09-18T03:10:57;100311.16;;;18.13;100.00
65329;BME280;51941;52.210;5.158;2023-09-18T03:13:26;100303.13;;;18.13;100.00
65329;BME280;51941;52.210;5.158;2023-09-18T03:15:53;100294.81;;;18.14;100.00
65329;BME280;51941;52.210;5.158;2023-09-18T03:18:20;100302.06;;;18.14;100.00
65329;BME280;51941;52.210;5.158;2023-09-18T03:20:47;100291.84;;;18.16;100.00
65329;BME280;51941;52.210;5.158;2023-09-18T03:23:15;100292.13;;;18.14;100.00
65329;BME280;51941;52.210;5.158;2023-09-18T03:25:42;100304.91;;;18.17;100.00
65329;BME280;51941;52.210;5.158;2023-09-18T03:28:09;100303.84;;;18.18;100.00
65329;BME280;51941;52.210;5.158;2023-09-18T03:30:36;100299.28;;;18.19;100.00
65329;BME280;51941;52.210;5.158;2023-09-18T03:33:03;100290.16;;;18.20;100.00
65329;BME280;51941;52.210;5.158;2023-09-18T03:35:31;100284.00;;;18.20;100.00
65329;BME280;51941;52.210;5.158;2023-09-18T03:37:58;100289.34;;;18.20;100.00
65329;BME280;51941;52.210;5.158;2023-09-18T03:40:26;100303.25;;;18.22;100.00
65329;BME280;51941;52.210;5.158;2023-09-18T03:42:53;100309.41;;;18.22;100.00
65329;BME280;51941;52.210;5.158;2023-09-18T03:45:20;100313.19;;;18.21;100.00
65329;BME280;51941;52.210;5.158;2023-09-18T03:47:48;100303.25;;;18.22;100.00
65329;BME280;51941;52.210;5.158;2023-09-18T03:50:16;100311.00;;;18.23;100.00
65329;BME280;51941;52.210;5.158;2023-09-18T03:52:43;100303.53;;;18.20;100.00
65329;BME280;51941;52.210;5.158;2023-09-18T03:55:10;100300.28;;;18.23;100.00
65329;BME280;51941;52.210;5.158;2023-09-18T03:57:39;100297.63;;;18.23;100.00
65329;BME280;51941;52.210;5.158;2023-09-18T04:00:07;100293.84;;;18.24;100.00
65329;BME280;51941;52.210;5.158;2023-09-18T04:02:37;100288.50;;;18.24;100.00
65329;BME280;51941;52.210;5.158;2023-09-18T04:05:04;100291.97;;;18.25;100.00
65329;BME280;51941;52.210;5.158;2023-09-18T04:07:33;100287.41;;;18.25;100.00
65329;BME280;51941;52.210;5.158;2023-09-18T04:10:00;100284.91;;;18.29;100.00
65329;BME280;51941;52.210;5.158;2023-09-18T04:12:28;100294.53;;;18.30;100.00
65329;BME280;51941;52.210;5.158;2023-09-18T04:14:56;100298.81;;;18.31;100.00
65329;BME280;51941;52.210;5.158;2023-09-18T04:17:22;100292.66;;;18.30;100.00
65329;BME280;51941;52.210;5.158;2023-09-18T04:19:50;100291.56;;;18.31;100.00
65329;BME280;51941;52.210;5.158;2023-09-18T04:22:17;100294.53;;;18.30;100.00
65329;BME280;51941;52.210;5.158;2023-09-18T04:24:44;100269.06;;;18.32;100.00
65329;BME280;51941;52.210;5.158;2023-09-18T04:27:10;100261.19;;;18.36;100.00
65329;BME280;51941;52.210;5.158;2023-09-18T04:29:37;100249.91;;;18.39;100.00
65329;BME280;51941;52.210;5.158;2023-09-18T04:32:06;100244.25;;;18.40;100.00
65329;BME280;51941;52.210;5.158;2023-09-18T04:34:33;100256.34;;;18.38;100.00
65329;BME280;51941;52.210;5.158;2023-09-18T04:37:00;100264.78;;;18.31;100.00
65329;BME280;51941;52.210;5.158;2023-09-18T04:39:28;100268.66;;;18.25;100.00
65329;BME280;51941;52.210;5.158;2023-09-18T04:42:01;100268.22;;;18.18;100.00
65329;BME280;51941;52.210;5.158;2023-09-18T04:44:29;100250.38;;;18.13;100.00
65329;BME280;51941;52.210;5.158;2023-09-18T04:46:57;100239.75;;;18.08;100.00
65329;BME280;51941;52.210;5.158;2023-09-18T04:49:27;100226.84;;;18.10;100.00
65329;BME280;51941;52.210;5.158;2023-09-18T04:51:55;100219.31;;;18.12;100.00
65329;BME280;51941;52.210;5.158;2023-09-18T04:54:22;100212.06;;;18.13;100.00
65329;BME280;51941;52.210;5.158;2023-09-18T04:56:49;100198.09;;;18.16;100.00
65329;BME280;51941;52.210;5.158;2023-09-18T04:59:16;100194.31;;;18.17;100.00
65329;BME280;51941;52.210;5.158;2023-09-18T05:01:42;100193.72;;;18.20;100.00
65329;BME280;51941;52.210;5.158;2023-09-18T05:04:09;100176.56;;;18.21;100.00
65329;BME280;51941;52.210;5.158;2023-09-18T05:06:38;100189.38;;;18.24;100.00
65329;BME280;51941;52.210;5.158;2023-09-18T05:09:06;100199.00;;;18.25;100.00
65329;BME280;51941;52.210;5.158;2023-09-18T05:11:32;100197.28;;;18.29;100.00
65329;BME280;51941;52.210;5.158;2023-09-18T05:13:59;100207.44;;;18.32;100.00
65329;BME280;51941;52.210;5.158;2023-09-18T05:16:26;100219.44;;;18.35;100.00
65329;BME280;51941;52.210;5.158;2023-09-18T05:18:53;100213.75;;;18.36;100.00
65329;BME280;51941;52.210;5.158;2023-09-18T05:21:20;100206.34;;;18.33;100.00
65329;BME280;51941;52.210;5.158;2023-09-18T05:23:51;100218.16;;;18.32;100.00
65329;BME280;51941;52.210;5.158;2023-09-18T05:26:19;100223.50;;;18.32;100.00
65329;BME280;51941;52.210;5.158;2023-09-18T05:28:48;100224.59;;;18.31;100.00
65329;BME280;51941;52.210;5.158;2023-09-18T05:31:15;100224.88;;;18.30;100.00
65329;BME280;51941;52.210;5.158;2023-09-18T05:33:42;100231.03;;;18.30;100.00
65329;BME280;51941;52.210;5.158;2023-09-18T05:36:09;100233.44;;;18.32;100.00
65329;BME280;51941;52.210;5.158;2023-09-18T05:38:35;100251.88;;;18.33;100.00
65329;BME280;51941;52.210;5.158;2023-09-18T05:41:04;100250.47;;;18.36;100.00
65329;BME280;51941;52.210;5.158;2023-09-18T05:43:31;100254.75;;;18.37;100.00
65329;BME280;51941;52.210;5.158;2023-09-18T05:45:58;100259.03;;;18.38;100.00
65329;BME280;51941;52.210;5.158;2023-09-18T05:48:24;100265.97;;;18.39;100.00
65329;BME280;51941;52.210;5.158;2023-09-18T05:50:51;100257.44;;;18.37;100.00
65329;BME280;51941;52.210;5.158;2023-09-18T05:53:19;100256.84;;;18.40;100.00
65329;BME280;51941;52.210;5.158;2023-09-18T05:55:47;100244.53;;;18.39;100.00
65329;BME280;51941;52.210;5.158;2023-09-18T05:58:15;100237.69;;;18.33;100.00
65329;BME280;51941;52.210;5.158;2023-09-18T06:00:43;100255.56;;;18.37;100.00
65329;BME280;51941;52.210;5.158;2023-09-18T06:03:09;100242.94;;;18.38;100.00
65329;BME280;51941;52.210;5.158;2023-09-18T06:05:37;100231.66;;;18.41;100.00
65329;BME280;51941;52.210;5.158;2023-09-18T06:08:04;100238.59;;;18.42;100.00
65329;BME280;51941;52.210;5.158;2023-09-18T06:10:31;100236.41;;;18.44;100.00
65329;BME280;51941;52.210;5.158;2023-09-18T06:12:58;100235.00;;;18.46;100.00
65329;BME280;51941;52.210;5.158;2023-09-18T06:15:30;100247.63;;;18.46;100.00
65329;BME280;51941;52.210;5.158;2023-09-18T06:17:57;100256.41;;;18.51;100.00
65329;BME280;51941;52.210;5.158;2023-09-18T06:20:24;100260.56;;;18.58;100.00
65329;BME280;51941;52.210;5.158;2023-09-18T06:22:51;100269.91;;;18.60;100.00
65329;BME280;51941;52.210;5.158;2023-09-18T06:25:17;100262.34;;;18.62;100.00
65329;BME280;51941;52.210;5.158;2023-09-18T06:27:45;100244.69;;;18.61;100.00
65329;BME280;51941;52.210;5.158;2023-09-18T06:30:12;100259.28;;;18.69;100.00
65329;BME280;51941;52.210;5.158;2023-09-18T06:32:41;100246.75;;;18.64;100.00
65329;BME280;51941;52.210;5.158;2023-09-18T06:35:08;100233.34;;;18.64;100.00
65329;BME280;51941;52.210;5.158;2023-09-18T06:37:34;100237.22;;;18.72;100.00
65329;BME280;51941;52.210;5.158;2023-09-18T06:40:01;100242.28;;;18.73;100.00
65329;BME280;51941;52.210;5.158;2023-09-18T06:42:30;100239.59;;;18.73;100.00
65329;BME280;51941;52.210;5.158;2023-09-18T06:44:57;100240.69;;;18.72;100.00
65329;BME280;51941;52.210;5.158;2023-09-18T06:47:24;100233.94;;;18.75;100.00
65329;BME280;51941;52.210;5.158;2023-09-18T06:49:52;100242.00;;;18.75;100.00
65329;BME280;51941;52.210;5.158;2023-09-18T06:52:19;100226.22;;;18.73;100.00
65329;BME280;51941;52.210;5.158;2023-09-18T06:54:45;100228.28;;;18.76;100.00
65329;BME280;51941;52.210;5.158;2023-09-18T06:57:13;100237.94;;;18.77;100.00
65329;BME280;51941;52.210;5.158;2023-09-18T06:59:39;100238.91;;;18.81;100.00
65329;BME280;51941;52.210;5.158;2023-09-18T07:02:06;100247.44;;;18.83;100.00
65329;BME280;51941;52.210;5.158;2023-09-18T07:04:33;100260.84;;;18.83;100.00
65329;BME280;51941;52.210;5.158;2023-09-18T07:07:01;100251.13;;;18.87;100.00
65329;BME280;51941;52.210;5.158;2023-09-18T07:09:28;100254.59;;;18.88;100.00
65329;BME280;51941;52.210;5.158;2023-09-18T07:11:55;100252.91;;;18.92;100.00
65329;BME280;51941;52.210;5.158;2023-09-18T07:14:22;100245.88;;;18.96;100.00
65329;BME280;51941;52.210;5.158;2023-09-18T07:16:49;100254.66;;;18.97;100.00
65329;BME280;51941;52.210;5.158;2023-09-18T07:19:15;100244.44;;;18.99;100.00
65329;BME280;51941;52.210;5.158;2023-09-18T07:21:43;100241.66;;;19.04;100.00
65329;BME280;51941;52.210;5.158;2023-09-18T07:24:11;100238.69;;;19.05;100.00
65329;BME280;51941;52.210;5.158;2023-09-18T07:26:45;100240.47;;;19.10;100.00
65329;BME280;51941;52.210;5.158;2023-09-18T07:29:13;100245.22;;;19.13;100.00
65329;BME280;51941;52.210;5.158;2023-09-18T07:31:41;100246.19;;;19.17;100.00
65329;BME280;51941;52.210;5.158;2023-09-18T07:34:08;100238.84;;;19.22;100.00
65329;BME280;51941;52.210;5.158;2023-09-18T07:36:34;100232.69;;;19.22;100.00
65329;BME280;51941;52.210;5.158;2023-09-18T07:39:01;100220.53;;;19.24;100.00
65329;BME280;51941;52.210;5.158;2023-09-18T07:41:31;100224.22;;;19.28;100.00
65329;BME280;51941;52.210;5.158;2023-09-18T07:43:58;100230.88;;;19.31;100.00
65329;BME280;51941;52.210;5.158;2023-09-18T07:46:25;100236.94;;;19.37;100.00
65329;BME280;51941;52.210;5.158;2023-09-18T07:48:52;100243.91;;;19.38;100.00
65329;BME280;51941;52.210;5.158;2023-09-18T07:51:18;100252.91;;;19.42;100.00
65329;BME280;51941;52.210;5.158;2023-09-18T07:53:45;100256.28;;;19.47;100.00
65329;BME280;51941;52.210;5.158;2023-09-18T07:56:12;100260.75;;;19.52;100.00
65329;BME280;51941;52.210;5.158;2023-09-18T07:58:41;100255.66;;;19.50;100.00
65329;BME280;51941;52.210;5.158;2023-09-18T08:01:07;100270.59;;;19.56;100.00
65329;BME280;51941;52.210;5.158;2023-09-18T08:03:35;100271.38;;;19.57;100.00
65329;BME280;51941;52.210;5.158;2023-09-18T08:06:02;100274.22;;;19.60;100.00
65329;BME280;51941;52.210;5.158;2023-09-18T08:08:30;100279.59;;;19.60;100.00
65329;BME280;51941;52.210;5.158;2023-09-18T08:10:58;100292.91;;;19.65;100.00
65329;BME280;51941;52.210;5.158;2023-09-18T08:13:25;100290.41;;;19.69;100.00
65329;BME280;51941;52.210;5.158;2023-09-18T08:15:53;100294.16;;;19.82;100.00
65329;BME280;51941;52.210;5.158;2023-09-18T08:18:20;100286.16;;;19.90;100.00
65329;BME280;51941;52.210;5.158;2023-09-18T08:20:46;100274.16;;;19.96;100.00
65329;BME280;51941;52.210;5.158;2023-09-18T08:23:13;100276.41;;;20.03;100.00
65329;BME280;51941;52.210;5.158;2023-09-18T08:25:40;100277.41;;;20.07;100.00
65329;BME280;51941;52.210;5.158;2023-09-18T08:28:06;100284.22;;;20.13;100.00
65329;BME280;51941;52.210;5.158;2023-09-18T08:30:33;100285.53;;;20.16;100.00
65329;BME280;51941;52.210;5.158;2023-09-18T08:33:04;100290.78;;;20.21;100.00
65329;BME280;51941;52.210;5.158;2023-09-18T08:35:30;100299.53;;;20.26;100.00
65329;BME280;51941;52.210;5.158;2023-09-18T08:37:57;100297.41;;;20.46;100.00
65329;BME280;51941;52.210;5.158;2023-09-18T08:40:24;100300.97;;;20.63;100.00
65329;BME280;51941;52.210;5.158;2023-09-18T08:42:52;100299.28;;;20.76;100.00
65329;BME280;51941;52.210;5.158;2023-09-18T08:45:25;100300.91;;;20.94;100.00
65329;BME280;51941;52.210;5.158;2023-09-18T08:47:52;100304.63;;;21.07;100.00
65329;BME280;51941;52.210;5.158;2023-09-18T08:50:23;100300.06;;;21.16;100.00
65329;BME280;51941;52.210;5.158;2023-09-18T08:52:50;100302.75;;;21.25;100.00
65329;BME280;51941;52.210;5.158;2023-09-18T08:55:17;100300.09;;;21.33;100.00
65329;BME280;51941;52.210;5.158;2023-09-18T08:57:45;100304.34;;;21.34;100.00
65329;BME280;51941;52.210;5.158;2023-09-18T09:00:13;100302.13;;;21.28;100.00
65329;BME280;51941;52.210;5.158;2023-09-18T09:02:42;100298.50;;;21.32;100.00
65329;BME280;51941;52.210;5.158;2023-09-18T09:05:09;100311.94;;;21.32;100.00
65329;BME280;51941;52.210;5.158;2023-09-18T09:07:37;100308.16;;;21.33;100.00
65329;BME280;51941;52.210;5.158;2023-09-18T09:10:04;100319.53;;;21.30;100.00
65329;BME280;51941;52.210;5.158;2023-09-18T09:12:48;100327.16;;;21.37;100.00
65329;BME280;51941;52.210;5.158;2023-09-18T09:15:15;100331.75;;;21.45;100.00
65329;BME280;51941;52.210;5.158;2023-09-18T09:17:42;100330.50;;;21.42;100.00
65329;BME280;51941;52.210;5.158;2023-09-18T09:20:10;100342.84;;;21.43;100.00
65329;BME280;51941;52.210;5.158;2023-09-18T09:22:39;100350.44;;;21.41;100.00
65329;BME280;51941;52.210;5.158;2023-09-18T09:25:21;100340.91;;;21.35;100.00
65329;BME280;51941;52.210;5.158;2023-09-18T09:27:48;100336.16;;;21.24;100.00
65329;BME280;51941;52.210;5.158;2023-09-18T09:30:19;100339.16;;;21.13;100.00
65329;BME280;51941;52.210;5.158;2023-09-18T09:32:48;100339.91;;;21.05;100.00
65329;BME280;51941;52.210;5.158;2023-09-18T09:35:19;100332.47;;;21.02;100.00
65329;BME280;51941;52.210;5.158;2023-09-18T09:37:49;100344.50;;;21.05;100.00
65329;BME280;51941;52.210;5.158;2023-09-18T09:40:19;100349.25;;;21.08;100.00
65329;BME280;51941;52.210;5.158;2023-09-18T09:42:46;100356.19;;;21.00;100.00
65329;BME280;51941;52.210;5.158;2023-09-18T09:45:14;100357.41;;;20.94;100.00
65329;BME280;51941;52.210;5.158;2023-09-18T09:47:41;100367.84;;;20.87;100.00
65329;BME280;51941;52.210;5.158;2023-09-18T09:50:09;100358.75;;;20.74;100.00
65329;BME280;51941;52.210;5.158;2023-09-18T09:52:41;100357.66;;;20.75;100.00
65329;BME280;51941;52.210;5.158;2023-09-18T09:55:20;100369.19;;;20.76;100.00
65329;BME280;51941;52.210;5.158;2023-09-18T09:57:47;100379.66;;;20.77;100.00
65329;BME280;51941;52.210;5.158;2023-09-18T10:00:15;100370.94;;;20.72;100.00
65329;BME280;51941;52.210;5.158;2023-09-18T10:02:57;100376.94;;;20.69;100.00
65329;BME280;51941;52.210;5.158;2023-09-18T10:05:27;100364.28;;;20.69;100.00
65329;BME280;51941;52.210;5.158;2023-09-18T10:07:57;100372.66;;;20.68;100.00
65329;BME280;51941;52.210;5.158;2023-09-18T10:10:29;100366.66;;;20.71;100.00
65329;BME280;51941;52.210;5.158;2023-09-18T10:12:58;100359.72;;;20.78;100.00
65329;BME280;51941;52.210;5.158;2023-09-18T10:15:27;100373.38;;;20.91;100.00
65329;BME280;51941;52.210;5.158;2023-09-18T10:17:56;100382.78;;;21.02;100.00
65329;BME280;51941;52.210;5.158;2023-09-18T10:20:26;100373.81;;;21.06;100.00
65329;BME280;51941;52.210;5.158;2023-09-18T10:22:56;100367.97;;;21.13;100.00
65329;BME280;51941;52.210;5.158;2023-09-18T10:25:29;100376.66;;;21.19;100.00
65329;BME280;51941;52.210;5.158;2023-09-18T10:27:57;100377.34;;;21.24;100.00
65329;BME280;51941;52.210;5.158;2023-09-18T10:30:27;100371.78;;;21.21;100.00
65329;BME280;51941;52.210;5.158;2023-09-18T10:32:56;100371.59;;;21.17;100.00
65329;BME280;51941;52.210;5.158;2023-09-18T10:35:23;100375.84;;;21.09;100.00
65329;BME280;51941;52.210;5.158;2023-09-18T10:37:51;100378.84;;;21.08;100.00
65329;BME280;51941;52.210;5.158;2023-09-18T10:40:20;100376.00;;;21.04;100.00
65329;BME280;51941;52.210;5.158;2023-09-18T10:42:50;100384.00;;;20.96;100.00
65329;BME280;51941;52.210;5.158;2023-09-18T10:45:19;100374.84;;;20.97;100.00
65329;BME280;51941;52.210;5.158;2023-09-18T10:47:47;100376.91;;;21.00;100.00
65329;BME280;51941;52.210;5.158;2023-09-18T10:50:22;100372.34;;;21.09;100.00
65329;BME280;51941;52.210;5.158;2023-09-18T10:52:50;100354.34;;;21.18;100.00
65329;BME280;51941;52.210;5.158;2023-09-18T10:55:17;100366.09;;;21.31;100.00
65329;BME280;51941;52.210;5.158;2023-09-18T10:57:52;100359.75;;;21.35;100.00
65329;BME280;51941;52.210;5.158;2023-09-18T11:00:21;100363.44;;;21.39;100.00
65329;BME280;51941;52.210;5.158;2023-09-18T11:02:51;100359.47;;;21.45;100.00
65329;BME280;51941;52.210;5.158;2023-09-18T11:05:28;100371.84;;;21.55;100.00
65329;BME280;51941;52.210;5.158;2023-09-18T11:08:24;100377.84;;;21.52;100.00
65329;BME280;51941;52.210;5.158;2023-09-18T11:11:02;100362.66;;;21.47;100.00
65329;BME280;51941;52.210;5.158;2023-09-18T11:13:39;100362.97;;;21.46;100.00
65329;BME280;51941;52.210;5.158;2023-09-18T11:16:18;100365.50;;;21.42;100.00
65329;BME280;51941;52.210;5.158;2023-09-18T11:18:50;100365.84;;;21.49;100.00
65329;BME280;51941;52.210;5.158;2023-09-18T11:21:23;100361.88;;;21.64;100.00
65329;BME280;51941;52.210;5.158;2023-09-18T11:23:57;100365.56;;;21.77;100.00
65329;BME280;51941;52.210;5.158;2023-09-18T11:26:28;100361.28;;;21.76;100.00
65329;BME280;51941;52.210;5.158;2023-09-18T11:28:58;100356.81;;;21.71;100.00
65329;BME280;51941;52.210;5.158;2023-09-18T11:31:41;100358.56;;;21.67;100.00
65329;BME280;51941;52.210;5.158;2023-09-18T11:34:15;100359.19;;;21.73;100.00
65329;BME280;51941;52.210;5.158;2023-09-18T11:36:46;100358.13;;;21.82;100.00
65329;BME280;51941;52.210;5.158;2023-09-18T11:39:13;100357.81;;;21.93;100.00
65329;BME280;51941;52.210;5.158;2023-09-18T11:41:40;100364.28;;;22.09;100.00
65329;BME280;51941;52.210;5.158;2023-09-18T11:44:34;100352.41;;;22.10;100.00
65329;BME280;51941;52.210;5.158;2023-09-18T11:47:07;100353.47;;;22.26;100.00
65329;BME280;51941;52.210;5.158;2023-09-18T11:49:35;100356.94;;;22.35;100.00
65329;BME280;51941;52.210;5.158;2023-09-18T11:52:02;100359.00;;;22.47;100.00
65329;BME280;51941;52.210;5.158;2023-09-18T11:54:32;100367.09;;;22.47;100.00
65329;BME280;51941;52.210;5.158;2023-09-18T11:57:02;100363.28;;;22.48;100.00
65329;BME280;51941;52.210;5.158;2023-09-18T11:59:37;100368.69;;;22.56;100.00
65329;BME280;51941;52.210;5.158;2023-09-18T12:02:04;100348.50;;;22.62;100.00
65329;BME280;51941;52.210;5.158;2023-09-18T12:04:33;100339.91;;;22.69;100.00
65329;BME280;51941;52.210;5.158;2023-09-18T12:07:01;100344.03;;;22.67;100.00
65329;BME280;51941;52.210;5.158;2023-09-18T12:09:29;100329.13;;;22.60;100.00
65329;BME280;51941;52.210;5.158;2023-09-18T12:11:56;100334.56;;;22.52;100.00
65329;BME280;51941;52.210;5.158;2023-09-18T12:14:23;100332.66;;;22.52;100.00
65329;BME280;51941;52.210;5.158;2023-09-18T12:16:51;100331.72;;;22.57;100.00
65329;BME280;51941;52.210;5.158;2023-09-18T12:19:19;100336.13;;;22.61;100.00
65329;BME280;51941;52.210;5.158;2023-09-18T12:21:46;100336.59;;;22.63;100.00
65329;BME280;51941;52.210;5.158;2023-09-18T12:24:14;100337.19;;;22.69;100.00
65329;BME280;51941;52.210;5.158;2023-09-18T12:26:41;100330.53;;;22.67;100.00
65329;BME280;51941;52.210;5.158;2023-09-18T12:29:09;100345.13;;;22.74;100.00
65329;BME280;51941;52.210;5.158;2023-09-18T12:31:37;100340.97;;;22.77;100.00
65329;BME280;51941;52.210;5.158;2023-09-18T12:34:14;100348.75;;;22.78;100.00
65329;BME280;51941;52.210;5.158;2023-09-18T12:36:41;100334.25;;;22.91;100.00
65329;BME280;51941;52.210;5.158;2023-09-18T12:39:08;100338.06;;;22.90;100.00
65329;BME280;51941;52.210;5.158;2023-09-18T12:41:36;100345.53;;;22.85;100.00
65329;BME280;51941;52.210;5.158;2023-09-18T12:44:05;100334.19;;;22.71;100.00
65329;BME280;51941;52.210;5.158;2023-09-18T12:46:32;100335.97;;;22.58;100.00